Airfield :







YOU CAN JOIN US ON...

 
LOGIN :

Register | Disclaimer

   EN    FR    IT 

 









Legend :    VFR   Marginal VFR   IFR   Intensive IFR   Very Intensive IFR
Visi :
Ceiling :
>= 8 km
>= 3000ft
5 to 8 km
1000 to 3000 ft
1500m to 5 km
500 to 1000 ft
800 to 1500m
200 to 500 ft
< 800m
< 200 ft
Symbols :   Thunderstorms  Fog  Heavy snow  Heavy precipitations  Wind > 20 kt






- Airport Elevation : 1188 ft


KCDA - Caledonia County

CURRENT METAR :
  • 281835Z AUTO 07004KT 10SM CLR 08/M11 A3013 RMK AO2 T00781107

EXPIRED METARs :
  • 281816Z AUTO 11004KT 10SM CLR 08/M11 A3014 RMK AO2 T00781106
  • 281755Z AUTO 11003KT 10SM CLR 07/M10 A3014 RMK AO2 T00721100 10073 21036
  • 281735Z AUTO 12003KT 10SM CLR 07/M10 A3015 RMK AO2 T00661096
  • 281715Z AUTO 12004KT 10SM CLR 07/M10 A3015 RMK AO2 T00651096
  • 281655Z AUTO 09005KT 10SM CLR 06/M09 A3015 RMK AO2 T00631093
  • 281636Z AUTO 12004KT 10SM CLR 06/M09 A3016 RMK AO2 T00591095
  • 281615Z AUTO 12004KT 10SM CLR 06/M10 A3016 RMK AO2 T00561100
  • 281555Z AUTO 00000KT 10SM CLR 05/M07 A3016 RMK AO2 T00521070
  • 281535Z AUTO 10003KT 10SM CLR 05/M07 A3016 RMK AO2 T00451070

TAF N/A



MET'MAP, your aeronautical weather chart ! - Copyright ORBIFLY December 2007 - Disclaimer

ORBIFLY MET'MAP TEAM :

Programming & Development : Alexandra Zaïnal
Concept & original design : Baudouin d'Aumeries
Assistance for programming : Marc-Olivier Méhu
Technical & hardware support : Manuel Goepfert

Contact : metmap@orbifly.com




SOURCES & CREDITS :

   NOAA